Time,TemperatureF,DewpointF,PressureIn,WindDirection,WindDirectionDegrees,WindSpeedMPH,WindSpeedGustMPH,Humidity,HourlyPrecipIn,Conditions,Clouds,dailyrainin,SoftwareType,DateUTC
2013-07-25 00:05:00,62.6,52.7,30.01,NNW,334,0.0,0.0,70,0.00,,,0.00,Wunderground v.1.15,2013-07-25 07:05:00,
2013-07-25 00:15:00,62.1,53.0,30.01,NNW,334,0.0,0.0,72,0.00,,,0.00,Wunderground v.1.15,2013-07-25 07:15:00,
2013-07-25 00:25:00,61.6,52.9,30.01,NNW,334,0.0,0.0,73,0.00,,,0.00,Wunderground v.1.15,2013-07-25 07:25:00,
2013-07-25 00:30:00,61.4,53.0,30.01,NNW,334,0.0,0.0,74,0.00,,,0.00,Wunderground v.1.15,2013-07-25 07:30:00,
2013-07-25 00:35:00,61.3,52.9,30.01,NNW,334,0.0,1.0,74,0.00,,,0.00,Wunderground v.1.15,2013-07-25 07:35:00,
2013-07-25 00:45:00,61.1,52.0,30.01,NW,316,0.0,1.0,72,0.00,,,0.00,Wunderground v.1.15,2013-07-25 07:45:00,
2013-07-25 00:55:00,61.0,51.9,30.01,NNW,331,0.0,1.0,72,0.00,,,0.00,Wunderground v.1.15,2013-07-25 07:55:00,
2013-07-25 01:05:00,61.2,51.7,30.01,North,10,0.0,0.0,71,0.00,,,0.00,Wunderground v.1.15,2013-07-25 08:05:00,
2013-07-25 01:15:00,61.4,51.1,30.01,WNW,298,0.0,0.0,69,0.00,,,0.00,Wunderground v.1.15,2013-07-25 08:15:00,
2013-07-25 01:25:00,61.3,51.0,30.01,NNW,347,0.0,0.0,69,0.00,,,0.00,Wunderground v.1.15,2013-07-25 08:25:00,
2013-07-25 01:35:00,61.0,50.8,30.01,NNW,347,0.0,0.0,69,0.00,,,0.00,Wunderground v.1.15,2013-07-25 08:35:00,
2013-07-25 01:45:00,60.6,50.8,30.01,NNW,347,0.0,0.0,70,0.00,,,0.00,Wunderground v.1.15,2013-07-25 08:45:00,
2013-07-25 01:55:00,60.2,51.5,30.01,NNW,347,0.0,0.0,73,0.00,,,0.00,Wunderground v.1.15,2013-07-25 08:55:00,
2013-07-25 02:00:00,60.0,52.4,30.01,NNW,347,0.0,0.0,76,0.00,,,0.00,Wunderground v.1.15,2013-07-25 09:00:00,
2013-07-25 02:05:00,59.8,52.2,30.01,NNW,347,0.0,0.0,76,0.00,,,0.00,Wunderground v.1.15,2013-07-25 09:05:00,
2013-07-25 02:15:00,59.1,52.2,30.01,NNW,348,0.0,0.0,78,0.00,,,0.00,Wunderground v.1.15,2013-07-25 09:15:00,
2013-07-25 02:25:00,58.6,51.8,30.01,NNW,348,0.0,0.0,78,0.00,,,0.00,Wunderground v.1.15,2013-07-25 09:25:00,
2013-07-25 02:35:00,58.1,52.0,30.02,North,2,0.0,1.0,80,0.00,,,0.00,Wunderground v.1.15,2013-07-25 09:35:00,
2013-07-25 02:45:00,57.8,51.7,30.02,North,2,0.0,1.0,80,0.00,,,0.00,Wunderground v.1.15,2013-07-25 09:45:00,
2013-07-25 02:55:00,57.6,51.1,30.02,North,4,0.0,1.0,79,0.00,,,0.00,Wunderground v.1.15,2013-07-25 09:55:00,
2013-07-25 03:00:00,57.6,50.8,30.02,North,4,0.0,0.0,78,0.00,,,0.00,Wunderground v.1.15,2013-07-25 10:00:00,
2013-07-25 03:05:00,57.8,50.3,30.02,North,360,0.0,0.0,76,0.00,,,0.00,Wunderground v.1.15,2013-07-25 10:05:00,
2013-07-25 03:15:00,58.5,50.2,30.02,NNW,340,0.0,2.0,74,0.00,,,0.00,Wunderground v.1.15,2013-07-25 10:15:00,
2013-07-25 03:25:00,58.6,50.3,30.02,NNW,346,0.0,0.0,74,0.00,,,0.00,Wunderground v.1.15,2013-07-25 10:25:00,
2013-07-25 03:35:00,58.8,50.9,30.02,NW,310,0.0,1.0,75,0.00,,,0.00,Wunderground v.1.15,2013-07-25 10:35:00,
2013-07-25 03:45:00,58.6,50.3,30.03,NW,310,0.0,1.0,74,0.00,,,0.00,Wunderground v.1.15,2013-07-25 10:45:00,
2013-07-25 03:55:00,58.2,50.7,30.03,NW,310,0.0,1.0,76,0.00,,,0.00,Wunderground v.1.15,2013-07-25 10:55:00,
2013-07-25 04:00:00,58.0,50.5,30.03,NW,310,0.0,0.0,76,0.00,,,0.00,Wunderground v.1.15,2013-07-25 11:00:00,
2013-07-25 04:10:00,57.7,50.9,30.03,North,2,0.0,0.0,78,0.00,,,0.00,Wunderground v.1.15,2013-07-25 11:10:00,
2013-07-25 04:15:00,57.5,50.7,30.03,North,2,0.0,0.0,78,0.00,,,0.00,Wunderground v.1.15,2013-07-25 11:15:00,
2013-07-25 04:20:00,57.4,50.9,30.03,North,2,0.0,0.0,79,0.00,,,0.00,Wunderground v.1.15,2013-07-25 11:20:00,
2013-07-25 04:25:00,57.3,51.5,30.03,North,2,0.0,0.0,81,0.00,,,0.00,Wunderground v.1.15,2013-07-25 11:25:00,
2013-07-25 04:35:00,56.9,51.5,30.03,North,2,0.0,4.0,82,0.00,,,0.00,Wunderground v.1.15,2013-07-25 11:35:00,
2013-07-25 04:45:00,56.6,51.5,30.03,North,2,0.0,4.0,83,0.00,,,0.00,Wunderground v.1.15,2013-07-25 11:45:00,
2013-07-25 04:50:00,56.3,51.2,30.03,North,2,0.0,4.0,83,0.00,,,0.00,Wunderground v.1.15,2013-07-25 11:50:00,
2013-07-25 04:55:00,56.0,51.2,30.03,North,2,0.0,4.0,84,0.00,,,0.00,Wunderground v.1.15,2013-07-25 11:55:00,
2013-07-25 05:05:00,55.5,51.4,30.03,North,2,0.0,0.0,86,0.00,,,0.00,Wunderground v.1.15,2013-07-25 12:05:00,
2013-07-25 05:10:00,55.3,51.5,30.03,North,2,0.0,0.0,87,0.00,,,0.00,Wunderground v.1.15,2013-07-25 12:10:00,
2013-07-25 05:15:00,55.1,51.6,30.03,North,2,0.0,0.0,88,0.00,,,0.00,Wunderground v.1.15,2013-07-25 12:15:00,
2013-07-25 05:25:00,54.8,51.6,30.03,North,359,0.0,0.0,89,0.00,,,0.00,Wunderground v.1.15,2013-07-25 12:25:00,
2013-07-25 05:35:00,54.6,51.4,30.03,North,359,0.0,1.0,89,0.00,,,0.00,Wunderground v.1.15,2013-07-25 12:35:00,
2013-07-25 05:45:00,54.3,51.1,30.04,North,359,0.0,1.0,89,0.00,,,0.00,Wunderground v.1.15,2013-07-25 12:45:00,
2013-07-25 05:55:00,54.1,50.9,30.04,NW,320,0.0,1.0,89,0.00,,,0.00,Wunderground v.1.15,2013-07-25 12:55:00,
2013-07-25 06:05:00,54.0,50.8,30.05,NW,307,0.0,2.0,89,0.00,,,0.00,Wunderground v.1.15,2013-07-25 13:05:00,
2013-07-25 06:15:00,54.0,51.1,30.05,NNE,15,0.0,1.0,90,0.00,,,0.00,Wunderground v.1.15,2013-07-25 13:15:00,
2013-07-25 06:25:00,54.4,51.5,30.05,NNE,18,0.0,0.0,90,0.00,,,0.00,Wunderground v.1.15,2013-07-25 13:25:00,
2013-07-25 06:35:00,54.9,52.0,30.05,NNE,22,0.0,1.0,90,0.00,,,0.00,Wunderground v.1.15,2013-07-25 13:35:00,
2013-07-25 06:45:00,55.4,52.2,30.05,ENE,70,0.0,1.0,89,0.00,,,0.00,Wunderground v.1.15,2013-07-25 13:45:00,
2013-07-25 06:55:00,55.9,52.4,30.05,NNE,16,0.0,1.0,88,0.00,,,0.00,Wunderground v.1.15,2013-07-25 13:55:00,
2013-07-25 07:00:00,56.2,52.7,30.05,NNE,25,0.0,0.0,88,0.00,,,0.00,Wunderground v.1.15,2013-07-25 14:00:00,
2013-07-25 07:10:00,57.0,53.2,30.06,North,351,0.0,0.0,87,0.00,,,0.00,Wunderground v.1.15,2013-07-25 14:10:00,
2013-07-25 07:15:00,57.7,53.2,30.06,North,6,0.0,0.0,85,0.00,,,0.00,Wunderground v.1.15,2013-07-25 14:15:00,
2013-07-25 07:25:00,58.3,53.5,30.06,North,9,0.0,0.0,84,0.00,,,0.00,Wunderground v.1.15,2013-07-25 14:25:00,
2013-07-25 07:35:00,59.5,54.0,30.06,North,9,0.0,3.0,82,0.00,,,0.00,Wunderground v.1.15,2013-07-25 14:35:00,
2013-07-25 07:45:00,60.9,54.3,30.06,North,9,0.0,3.0,79,0.00,,,0.00,Wunderground v.1.15,2013-07-25 14:45:00,
2013-07-25 07:55:00,63.4,54.6,30.06,ENE,65,0.0,3.0,73,0.00,,,0.00,Wunderground v.1.15,2013-07-25 14:55:00,
2013-07-25 08:05:00,66.5,55.2,30.06,SE,146,0.0,0.0,67,0.00,,,0.00,Wunderground v.1.15,2013-07-25 15:05:00,
2013-07-25 08:15:00,68.4,55.7,30.07,SSE,152,0.0,0.0,64,0.00,,,0.00,Wunderground v.1.15,2013-07-25 15:15:00,
2013-07-25 08:25:00,70.6,56.0,30.07,SSE,149,0.0,0.0,60,0.00,,,0.00,Wunderground v.1.15,2013-07-25 15:25:00,
2013-07-25 08:35:00,71.4,55.4,30.07,SSE,162,0.0,1.0,57,0.00,,,0.00,Wunderground v.1.15,2013-07-25 15:35:00,
2013-07-25 08:45:00,71.2,54.7,30.05,South,175,0.0,1.0,56,0.00,,,0.00,Wunderground v.1.15,2013-07-25 15:45:00,
2013-07-25 08:55:00,70.2,54.7,30.07,SE,145,0.0,1.0,58,0.00,,,0.00,Wunderground v.1.15,2013-07-25 15:55:00,
2013-07-25 09:05:00,69.6,54.2,30.04,South,185,0.0,1.0,58,0.00,,,0.00,Wunderground v.1.15,2013-07-25 16:05:00,
2013-07-25 09:15:00,69.3,54.4,30.04,SSE,158,0.0,1.0,59,0.00,,,0.00,Wunderground v.1.15,2013-07-25 16:15:00,
2013-07-25 09:25:00,70.8,54.8,30.07,SE,143,0.0,0.0,57,0.00,,,0.00,Wunderground v.1.15,2013-07-25 16:25:00,
2013-07-25 09:35:00,72.2,55.1,30.07,NNW,334,0.0,1.0,55,0.00,,,0.00,Wunderground v.1.15,2013-07-25 16:35:00,
2013-07-25 09:45:00,74.2,54.9,30.07,SSE,147,0.0,2.0,51,0.00,,,0.00,Wunderground v.1.15,2013-07-25 16:45:00,
2013-07-25 09:55:00,75.8,54.7,30.07,SE,139,0.0,2.0,48,0.00,,,0.00,Wunderground v.1.15,2013-07-25 16:55:00,
2013-07-25 10:05:00,76.8,55.0,30.08,SSE,150,0.0,0.0,47,0.00,,,0.00,Wunderground v.1.15,2013-07-25 17:05:00,
2013-07-25 10:15:00,78.0,55.5,30.08,NW,306,0.0,0.0,46,0.00,,,0.00,Wunderground v.1.15,2013-07-25 17:15:00,
2013-07-25 10:25:00,80.2,55.7,30.08,NNW,338,0.0,1.0,43,0.00,,,0.00,Wunderground v.1.15,2013-07-25 17:25:00,
2013-07-25 10:35:00,80.4,55.9,30.08,NW,319,0.0,2.0,43,0.00,,,0.00,Wunderground v.1.15,2013-07-25 17:35:00,
2013-07-25 10:45:00,78.5,55.4,30.08,South,175,0.0,3.0,45,0.00,,,0.00,Wunderground v.1.15,2013-07-25 17:45:00,
2013-07-25 10:55:00,76.4,55.8,30.08,South,180,0.0,3.0,49,0.00,,,0.00,Wunderground v.1.15,2013-07-25 17:55:00,
2013-07-25 11:05:00,72.1,55.5,30.08,ESE,103,0.0,0.0,56,0.00,,,0.00,Wunderground v.1.15,2013-07-25 18:05:00,
2013-07-25 11:15:00,72.5,55.9,30.08,ESE,117,0.0,0.0,56,0.00,,,0.00,Wunderground v.1.15,2013-07-25 18:15:00,
2013-07-25 11:25:00,74.5,56.2,30.08,SSE,160,0.0,0.0,53,0.00,,,0.00,Wunderground v.1.15,2013-07-25 18:25:00,
2013-07-25 11:30:00,76.3,56.3,30.08,SW,235,0.0,0.0,50,0.00,,,0.00,Wunderground v.1.15,2013-07-25 18:30:00,
2013-07-25 11:35:00,78.0,56.1,30.08,NE,39,0.0,4.0,47,0.00,,,0.00,Wunderground v.1.15,2013-07-25 18:35:00,
2013-07-25 11:45:00,80.4,55.9,30.08,ESE,113,0.0,4.0,43,0.00,,,0.00,Wunderground v.1.15,2013-07-25 18:45:00,
2013-07-25 11:55:00,81.4,56.1,30.08,South,185,0.0,4.0,42,0.00,,,0.00,Wunderground v.1.15,2013-07-25 18:55:00,
2013-07-25 12:05:00,78.9,54.5,30.08,SSE,154,0.0,1.0,43,0.00,,,0.00,Wunderground v.1.15,2013-07-25 19:05:00,
2013-07-25 12:15:00,77.5,54.5,30.08,SSE,162,0.0,1.0,45,0.00,,,0.00,Wunderground v.1.15,2013-07-25 19:15:00,
2013-07-25 12:25:00,76.0,54.9,30.08,SE,140,0.0,1.0,48,0.00,,,0.00,Wunderground v.1.15,2013-07-25 19:25:00,
2013-07-25 12:35:00,73.9,54.6,30.08,SSE,158,0.0,3.0,51,0.00,,,0.00,Wunderground v.1.15,2013-07-25 19:35:00,
2013-07-25 12:45:00,71.0,55.9,30.08,SSE,166,0.0,3.0,59,0.00,,,0.00,Wunderground v.1.15,2013-07-25 19:45:00,
2013-07-25 12:55:00,69.8,55.7,30.08,SSE,151,0.0,3.0,61,0.00,,,0.00,Wunderground v.1.15,2013-07-25 19:55:00,
2013-07-25 13:05:00,71.5,55.0,30.08,SSE,151,0.0,0.0,56,0.00,,,0.00,Wunderground v.1.15,2013-07-25 20:05:00,
2013-07-25 13:10:00,72.8,56.2,30.08,SSE,152,0.0,0.0,56,0.00,,,0.00,Wunderground v.1.15,2013-07-25 20:10:00,
2013-07-25 13:15:00,73.9,57.2,30.08,SSE,149,0.0,0.0,56,0.00,,,0.00,Wunderground v.1.15,2013-07-25 20:15:00,
2013-07-25 13:25:00,75.0,56.2,30.08,SE,139,0.0,0.0,52,0.00,,,0.00,Wunderground v.1.15,2013-07-25 20:25:00,
2013-07-25 13:30:00,76.3,55.7,30.08,SE,139,0.0,0.0,49,0.00,,,0.00,Wunderground v.1.15,2013-07-25 20:30:00,
2013-07-25 13:35:00,79.1,55.9,30.08,NNE,17,0.0,2.0,45,0.00,,,0.00,Wunderground v.1.15,2013-07-25 20:35:00,
2013-07-25 13:45:00,83.8,54.7,30.07,NE,38,0.0,2.0,37,0.00,,,0.00,Wunderground v.1.15,2013-07-25 20:45:00,
2013-07-25 13:55:00,86.1,55.2,30.07,NW,317,0.0,2.0,35,0.00,,,0.00,Wunderground v.1.15,2013-07-25 20:55:00,
2013-07-25 14:00:00,87.2,57.0,30.07,SSE,157,0.0,1.0,36,0.00,,,0.00,Wunderground v.1.15,2013-07-25 21:00:00,
2013-07-25 14:05:00,82.1,55.4,30.07,SSE,156,0.0,1.0,40,0.00,,,0.00,Wunderground v.1.15,2013-07-25 21:05:00,
2013-07-25 14:15:00,75.8,57.4,30.07,SSE,158,0.0,0.0,53,0.00,,,0.00,Wunderground v.1.15,2013-07-25 21:15:00,
2013-07-25 14:25:00,75.9,57.5,30.07,SSE,166,0.0,1.0,53,0.00,,,0.00,Wunderground v.1.15,2013-07-25 21:25:00,
2013-07-25 14:35:00,77.6,55.8,30.06,SSE,153,0.0,1.0,47,0.00,,,0.00,Wunderground v.1.15,2013-07-25 21:35:00,
2013-07-25 14:45:00,79.1,54.0,30.06,SSE,159,0.0,1.0,42,0.00,,,0.00,Wunderground v.1.15,2013-07-25 21:45:00,
2013-07-25 14:55:00,81.2,53.9,30.06,SE,146,0.0,2.0,39,0.00,,,0.00,Wunderground v.1.15,2013-07-25 21:55:00,
2013-07-25 15:05:00,81.6,54.2,30.06,South,180,0.0,0.0,39,0.00,,,0.00,Wunderground v.1.15,2013-07-25 22:05:00,
2013-07-25 15:15:00,81.4,54.8,30.06,SSW,193,0.0,1.0,40,0.00,,,0.00,Wunderground v.1.15,2013-07-25 22:15:00,
2013-07-25 15:20:00,81.9,54.5,30.06,South,185,0.0,0.0,39,0.00,,,0.00,Wunderground v.1.15,2013-07-25 22:20:00,
2013-07-25 15:25:00,81.9,53.8,30.05,SSE,166,0.0,0.0,38,0.00,,,0.00,Wunderground v.1.15,2013-07-25 22:25:00,
2013-07-25 15:35:00,82.0,53.9,30.05,SSE,151,0.0,2.0,38,0.00,,,0.00,Wunderground v.1.15,2013-07-25 22:35:00,
2013-07-25 15:45:00,81.8,54.4,30.05,SE,143,0.0,2.0,39,0.00,,,0.00,Wunderground v.1.15,2013-07-25 22:45:00,
2013-07-25 15:50:00,82.1,54.7,30.05,SE,143,0.0,2.0,39,0.00,,,0.00,Wunderground v.1.15,2013-07-25 22:50:00,
2013-07-25 15:55:00,85.2,56.0,30.05,NE,36,0.0,2.0,37,0.00,,,0.00,Wunderground v.1.15,2013-07-25 22:55:00,
2013-07-25 16:05:00,88.7,56.7,30.05,NNE,29,0.0,0.0,34,0.00,,,0.00,Wunderground v.1.15,2013-07-25 23:05:00,
2013-07-25 16:15:00,92.4,56.5,30.05,NNW,347,0.0,0.0,30,0.00,,,0.00,Wunderground v.1.15,2013-07-25 23:15:00,
2013-07-25 16:25:00,92.4,56.5,30.05,NNW,333,0.0,1.0,30,0.00,,,0.00,Wunderground v.1.15,2013-07-25 23:25:00,
2013-07-25 16:35:00,92.2,57.2,30.05,North,358,1.0,1.0,31,0.00,,,0.00,Wunderground v.1.15,2013-07-25 23:35:00,
2013-07-25 16:45:00,92.1,56.2,30.05,NE,42,0.0,3.0,30,0.00,,,0.00,Wunderground v.1.15,2013-07-25 23:45:00,
2013-07-25 16:55:00,91.6,56.7,30.05,NW,324,0.0,3.0,31,0.00,,,0.00,Wunderground v.1.15,2013-07-25 23:55:00,
2013-07-25 17:00:00,90.9,56.1,30.05,NNE,22,1.0,1.0,31,0.00,,,0.00,Wunderground v.1.15,2013-07-26 00:00:00,
2013-07-25 17:10:00,88.9,55.2,30.05,South,180,1.0,1.0,32,0.00,,,0.00,Wunderground v.1.15,2013-07-26 00:10:00,
2013-07-25 17:15:00,88.4,55.6,30.05,NNW,330,1.0,1.0,33,0.00,,,0.00,Wunderground v.1.15,2013-07-26 00:15:00,
2013-07-25 17:25:00,87.2,54.6,30.05,NW,322,2.0,2.0,33,0.00,,,0.00,Wunderground v.1.15,2013-07-26 00:25:00,
2013-07-25 17:35:00,86.1,53.6,30.05,NNW,341,1.0,5.0,33,0.00,,,0.00,Wunderground v.1.15,2013-07-26 00:35:00,
2013-07-25 17:40:00,85.6,53.2,30.04,NNW,330,1.0,5.0,33,0.00,,,0.00,Wunderground v.1.15,2013-07-26 00:40:00,
2013-07-25 17:45:00,84.8,53.3,30.04,NNW,334,1.0,5.0,34,0.00,,,0.00,Wunderground v.1.15,2013-07-26 00:45:00,
2013-07-25 17:55:00,82.5,52.9,30.04,NNW,343,2.0,5.0,36,0.00,,,0.00,Wunderground v.1.15,2013-07-26 00:55:00,
2013-07-25 18:05:00,80.1,52.9,30.04,NNW,328,1.0,2.0,39,0.00,,,0.00,Wunderground v.1.15,2013-07-26 01:05:00,
2013-07-25 18:15:00,78.8,51.7,30.04,WNW,301,1.0,8.0,39,0.00,,,0.00,Wunderground v.1.15,2013-07-26 01:15:00,
2013-07-25 18:25:00,78.4,51.4,30.04,NNE,14,1.0,1.0,39,0.00,,,0.00,Wunderground v.1.15,2013-07-26 01:25:00,
2013-07-25 18:35:00,78.0,51.7,30.03,NW,312,1.0,3.0,40,0.00,,,0.00,Wunderground v.1.15,2013-07-26 01:35:00,
2013-07-25 18:45:00,77.6,51.4,30.03,North,353,1.0,10.0,40,0.00,,,0.00,Wunderground v.1.15,2013-07-26 01:45:00,
2013-07-25 18:55:00,77.2,52.3,30.03,North,351,1.0,10.0,42,0.00,,,0.00,Wunderground v.1.15,2013-07-26 01:55:00,
2013-07-25 19:00:00,77.0,52.1,30.03,NW,312,1.0,4.0,42,0.00,,,0.00,Wunderground v.1.15,2013-07-26 02:00:00,
2013-07-25 19:05:00,76.9,52.7,30.03,NW,314,2.0,4.0,43,0.00,,,0.00,Wunderground v.1.15,2013-07-26 02:05:00,
2013-07-25 19:15:00,76.6,52.4,30.03,North,355,2.0,2.0,43,0.00,,,0.00,Wunderground v.1.15,2013-07-26 02:15:00,
2013-07-25 19:25:00,76.5,53.0,30.03,NW,318,1.0,1.0,44,0.00,,,0.00,Wunderground v.1.15,2013-07-26 02:25:00,
2013-07-25 19:35:00,76.3,52.2,30.03,NW,314,1.0,9.0,43,0.00,,,0.00,Wunderground v.1.15,2013-07-26 02:35:00,
2013-07-25 19:45:00,75.8,52.9,30.03,NW,324,1.0,9.0,45,0.00,,,0.00,Wunderground v.1.15,2013-07-26 02:45:00,
2013-07-25 19:55:00,75.3,53.1,30.03,NNE,27,0.0,9.0,46,0.00,,,0.00,Wunderground v.1.15,2013-07-26 02:55:00,
2013-07-25 20:05:00,74.6,53.0,30.03,NNE,28,0.0,0.0,47,0.00,,,0.00,Wunderground v.1.15,2013-07-26 03:05:00,
2013-07-25 20:15:00,73.9,53.0,30.03,NW,306,0.0,0.0,48,0.00,,,0.00,Wunderground v.1.15,2013-07-26 03:15:00,
2013-07-25 20:25:00,73.3,53.0,30.03,NNW,330,0.0,0.0,49,0.00,,,0.00,Wunderground v.1.15,2013-07-26 03:25:00,
2013-07-25 20:35:00,72.8,53.1,30.03,North,359,0.0,7.0,50,0.00,,,0.00,Wunderground v.1.15,2013-07-26 03:35:00,
2013-07-25 20:45:00,72.4,53.8,30.03,NE,51,0.0,7.0,52,0.00,,,0.00,Wunderground v.1.15,2013-07-26 03:45:00,
2013-07-25 20:55:00,71.7,54.2,30.03,NNE,25,0.0,7.0,54,0.00,,,0.00,Wunderground v.1.15,2013-07-26 03:55:00,
2013-07-25 21:05:00,71.2,54.2,30.03,NNE,12,0.0,0.0,55,0.00,,,0.00,Wunderground v.1.15,2013-07-26 04:05:00,
2013-07-25 21:10:00,70.9,54.4,30.03,NNE,19,0.0,0.0,56,0.00,,,0.00,Wunderground v.1.15,2013-07-26 04:10:00,
2013-07-25 21:15:00,70.7,54.2,30.04,North,349,0.0,0.0,56,0.00,,,0.00,Wunderground v.1.15,2013-07-26 04:15:00,
2013-07-25 21:20:00,70.5,54.0,30.04,North,357,0.0,0.0,56,0.00,,,0.00,Wunderground v.1.15,2013-07-26 04:20:00,
2013-07-25 21:25:00,70.2,54.7,30.04,North,357,0.0,0.0,58,0.00,,,0.00,Wunderground v.1.15,2013-07-26 04:25:00,
2013-07-25 21:35:00,69.7,54.7,30.04,North,357,0.0,3.0,59,0.00,,,0.00,Wunderground v.1.15,2013-07-26 04:35:00,
2013-07-25 21:40:00,69.5,55.0,30.04,North,357,0.0,3.0,60,0.00,,,0.00,Wunderground v.1.15,2013-07-26 04:40:00,
2013-07-25 21:45:00,69.1,54.6,30.04,North,357,0.0,3.0,60,0.00,,,0.00,Wunderground v.1.15,2013-07-26 04:45:00,
2013-07-25 21:55:00,68.4,54.9,30.05,North,357,0.0,3.0,62,0.00,,,0.00,Wunderground v.1.15,2013-07-26 04:55:00,
2013-07-25 22:00:00,67.9,54.8,30.05,North,357,0.0,0.0,63,0.00,,,0.00,Wunderground v.1.15,2013-07-26 05:00:00,
2013-07-25 22:05:00,67.6,55.0,30.04,NW,320,0.0,0.0,64,0.00,,,0.00,Wunderground v.1.15,2013-07-26 05:05:00,
2013-07-25 22:15:00,67.2,54.6,30.04,NW,322,0.0,0.0,64,0.00,,,0.00,Wunderground v.1.15,2013-07-26 05:15:00,
2013-07-25 22:25:00,67.2,54.6,30.05,NNE,16,0.0,0.0,64,0.00,,,0.00,Wunderground v.1.15,2013-07-26 05:25:00,
2013-07-25 22:35:00,67.2,54.6,30.05,NNW,347,0.0,3.0,64,0.00,,,0.00,Wunderground v.1.15,2013-07-26 05:35:00,
2013-07-25 22:45:00,67.1,54.5,30.05,NNW,343,0.0,3.0,64,0.00,,,0.00,Wunderground v.1.15,2013-07-26 05:45:00,
2013-07-25 22:55:00,67.0,54.4,30.05,NNW,339,0.0,3.0,64,0.00,,,0.00,Wunderground v.1.15,2013-07-26 05:55:00,
2013-07-25 23:05:00,66.8,54.7,30.05,North,354,0.0,0.0,65,0.00,,,0.00,Wunderground v.1.15,2013-07-26 06:05:00,
2013-07-25 23:15:00,66.4,54.3,30.05,North,360,0.0,0.0,65,0.00,,,0.00,Wunderground v.1.15,2013-07-26 06:15:00,
2013-07-25 23:25:00,66.2,53.7,30.05,NNW,333,0.0,0.0,64,0.00,,,0.00,Wunderground v.1.15,2013-07-26 06:25:00,
2013-07-25 23:35:00,66.0,53.9,30.05,NNW,338,0.0,2.0,65,0.00,,,0.00,Wunderground v.1.15,2013-07-26 06:35:00,
2013-07-25 23:45:00,65.8,53.7,30.05,North,350,0.0,2.0,65,0.00,,,0.00,Wunderground v.1.15,2013-07-26 06:45:00,
2013-07-25 23:55:00,65.5,53.8,30.05,North,360,0.0,2.0,66,0.00,,,0.00,Wunderground v.1.15,2013-07-26 06:55:00,